This is the latest recevied weather packets stored in our database for station/object KC2BRB-1. If no packets are shown the sender has not sent any weather packets the latest 10 day(s).
| Time | Temp. | Humidity | Pressure | Rain* | Wind** | Luminosity | Snow |
|---|---|---|---|---|---|---|---|
| 1777729354 | 24.44° C | 84% | 1008.8 hPa | 0 mm | - | - | - |
| 1777729068 | 23.33° C | 88% | 1008.4 hPa | 0 mm | - | - | - |
| 1777729054 | 24.44° C | 84% | 1008.8 hPa | 0 mm | - | - | - |
| 1777728754 | 23.89° C | 85% | 1008.4 hPa | 0 mm | - | - | - |
| 1777728154 | 23.33° C | 88% | 1008.4 hPa | 0 mm | - | - | - |
| 1777727855 | 23.33° C | 88% | 1008.4 hPa | 0 mm | - | - | - |
| 1777727554 | 22.78° C | 92% | 1008.2 hPa | 0 mm | - | - | - |
| 1777727256 | 22.78° C | 92% | 1008.2 hPa | 0 mm | - | - | - |
| 1777726955 | 22.78° C | 95% | 1008.2 hPa | 0 mm | - | - | - |
| 1777726655 | 22.78° C | 95% | 1008.2 hPa | 0 mm | - | - | - |
| 1777726356 | 22.22° C | 96% | 1008.2 hPa | 0 mm | - | - | - |
| 1777725755 | 22.22° C | 97% | 1008.2 hPa | 0 mm | - | - | - |
| 1777725455 | 22.22° C | 97% | 1008.2 hPa | 0 mm | - | - | - |
| 1777725155 | 21.67° C | 97% | 1007.8 hPa | 0 mm | - | - | - |
| 1777724855 | 21.67° C | 97% | 1007.8 hPa | 0 mm | - | - | - |
| 1777724555 | 21.67° C | 97% | 1007.8 hPa | 0 mm | - | - | - |
| 1777724255 | 21.67° C | 97% | 1007.8 hPa | 0 mm | - | - | - |
| 1777723955 | 21.11° C | 97% | 1007.8 hPa | 0 mm | - | - | - |
| 1777723655 | 21.11° C | 97% | 1007.8 hPa | 0 mm | - | - | - |
| 1777723355 | 21.11° C | 97% | 1007.7 hPa | 0 mm | - | - | - |
| 1777723055 | 21.11° C | 97% | 1007.7 hPa | 0 mm | - | - | - |
| 1777722755 | 21.11° C | 97% | 1007.7 hPa | 0 mm | - | - | - |
| 1777722155 | 20.56° C | 97% | 1007.8 hPa | 0 mm | - | - | - |
| 1777721855 | 20.56° C | 97% | 1007.8 hPa | 0 mm | - | - | - |
| 1777721555 | 20.56° C | 96% | 1007.7 hPa | 0 mm | - | - | - |
* Rain latest hour (hover to see other rain measurements)
** Current wind speed in m/s (hover to see current wind gust speed)